x

8537121 - Ship John Shoal, Nj (sjsn4) Weather Station

6:54pm - Sat 25th Mar 2017 All times are EDT. -4 hours from GMT.

  • Wind
    6mph, 7mph gusts
  • Sea Temp 43°f
  • Air Temp 52°f
  • Sea Pressure 1021.5mb
  • 8537121 - Ship John Shoal, Nj
  • 8537121 - Ship John Shoal, Nj

More Historic Weather Station data

Upgrade to MSW Pro to gain access to the past 30 days of data for over 8000 Wavebouys and Weather Stations around the globe.

Join Pro

Comparision Forecast

View Surf forecast
   
Sat 03/25 6:54pm 6 7 mph 1021.5mb 43f 52f
6:48pm 6 10 mph 1021.4mb 43f 52f
6:42pm 6 13 mph 1021.2mb 43f 49f
6:36pm 13 14 mph 1020.9mb 43f 52f
6:30pm 14 15 mph 1020.9mb 43f 51f
6:24pm 14 15 mph 1020.9mb 43f 51f
6:18pm 15 16 mph 1020.9mb 43f 51f
6:12pm 15 16 mph 1020.9mb 44f 51f
6:06pm 15 16 mph 1020.8mb 44f 51f
6:00pm 15
mph
1020.7mb 44f 51f
5:54pm 15
mph
1020.7mb 44f 51f
5:48pm 15 16 mph 1020.6mb 44f 52f
5:42pm 15
mph
1020.5mb 44f 52f
5:36pm 15 16 mph 1020.5mb 44f 51f
5:30pm 14 16 mph 1020.5mb 44f 51f
5:24pm 14 16 mph 1020.4mb 44f 53f
5:18pm 15 16 mph 1020.4mb 44f 51f
5:12pm 14
mph
1020.3mb 44f 53f
5:06pm 13 15 mph 1020.3mb 43f 55f
5:00pm 14 15 mph 1020.3mb 43f 52f
4:54pm 11 14 mph 1020.2mb 43f 58f
4:48pm 10
mph
1020.2mb 43f 56f
4:42pm 9 13 mph 1020.2mb 43f 55f
4:36pm 10 13 mph 1020.3mb 43f 54f
4:30pm 10 13 mph 1020.3mb 43f 53f
4:24pm 7 8 mph 1020.3mb 43f 58f
4:18pm 7 9 mph 1020.2mb 43f 60f
4:12pm 8 10 mph 1020.2mb 43f 58f
4:06pm 8 9 mph 1020.2mb 43f 60f
4:00pm 9
mph
1020.2mb 43f 56f
3:54pm 8 9 mph 1020.2mb 43f 63f
3:48pm 9 11 mph 1020.2mb 43f 59f
3:42pm 9 13 mph 1020.2mb 43f 60f
3:36pm 8 9 mph 1020.2mb 43f 57f
3:30pm 7
mph
1020.2mb 43f 63f
3:24pm 7 9 mph 1020.2mb 43f 64f
3:18pm 8 9 mph 1020.2mb 43f 56f
3:12pm 8 9 mph 1020.1mb 43f 63f
3:06pm 6 7 mph 1020.2mb 43f 64f
3:00pm 6 7 mph 1020.2mb 43f 60f
2:54pm 6
mph
1020.2mb 43f 57f
2:48pm 6 8 mph 1020.2mb 43f 57f
2:42pm 6 7 mph 1020.2mb 43f 64f
2:36pm 7 8 mph 1020.3mb 43f 61f
2:30pm 8
mph
1020.3mb 43f 61f
2:24pm 7 8 mph 1020.4mb 43f 63f
2:18pm 8
mph
1020.4mb 43f 61f
2:12pm 7
mph
1020.5mb 43f 61f
2:06pm 7 8 mph 1020.6mb 43f 54f
2:00pm 7 10 mph 1020.6mb 43f 52f
1:54pm 9 10 mph 1020.6mb 43f 53f
1:48pm 7 8 mph 1020.6mb 43f 56f
1:42pm 8 9 mph 1020.6mb 43f 56f
1:36pm 8 9 mph 1020.7mb 43f 54f
1:30pm 9 11 mph 1020.7mb 43f 56f
1:24pm 9 10 mph 1020.7mb 43f 53f
1:18pm 10
mph
1020.6mb 43f 57f
1:12pm 8 9 mph 1020.7mb 43f 56f
1:06pm 9
mph
1020.7mb 43f 54f
1:00pm 8 10 mph 1020.8mb 43f 53f
12:54pm 8 9 mph 1020.8mb 43f 53f
12:48pm 6 10 mph 1020.9mb 43f 55f
12:42pm 8 10 mph 1020.9mb 43f 50f
12:36pm 6
mph
1021mb 43f 52f
12:30pm 6
mph
1021mb 43f 52f
12:24pm 6 7 mph 1021mb 43f 54f
12:18pm 5
mph
1021.1mb 43f 56f
12:12pm 5
mph
1021.1mb 43f 56f
12:06pm 3 6 mph 1021.1mb 42f 56f
12:00pm 5 7 mph 1021.1mb 42f 54f
11:54am 1 5 mph 1021.1mb 42f 57f
11:48am 2 3 mph 1021.2mb 42f 55f
11:42am 2 3 mph 1021.2mb 42f 57f
11:36am 1 3 mph 1021.2mb 42f 61f
11:30am 1 2 mph 1021.2mb 42f 59f
11:24am 2
mph
1021.2mb 42f 60f
11:18am 2 3 mph 1021.2mb 42f 60f
11:12am 3
mph
1021.3mb 42f 60f
11:06am 3 6 mph 1021.3mb 42f 60f
11:00am 6 7 mph 1021.4mb 42f 58f
10:54am 7 10 mph 1021.4mb 42f 59f
10:48am 8 11 mph 1021.5mb 42f 61f
10:42am 8 10 mph 1021.5mb 42f 61f
10:36am 8 9 mph 1021.5mb 42f 60f
10:30am 7 10 mph 1021.5mb 42f 60f
10:24am 6 8 mph 1021.5mb 42f 60f
10:18am 3 8 mph 1021.6mb 42f 57f
10:12am 3 6 mph 1021.7mb 42f 56f
10:06am 5 13 mph 1021.6mb 42f 54f
10:00am 14 20 mph 1021.6mb 42f 56f
9:54am 18 20 mph 1021.6mb 42f 56f
9:48am 17 20 mph 1021.5mb 42f 56f
9:42am 20 22 mph 1021.4mb 42f 56f
9:36am 20 21 mph 1021.3mb 42f 56f
9:30am 17 18 mph 1021.3mb 42f 55f
9:24am 14 16 mph 1021.5mb 42f 55f
9:18am 10 11 mph 1021.6mb 42f 53f
9:12am 5 10 mph 1021.6mb 42f 53f
9:06am 11 16 mph 1021.6mb 42f 53f
9:00am 15 16 mph 1021.6mb 42f 55f
8:54am 11 15 mph 1021.7mb 42f 54f
8:48am 11 14 mph 1021.7mb 42f 54f
8:42am 8 14 mph 1021.6mb 42f 55f
8:36am 8 11 mph 1021.5mb 42f 56f
8:30am 9 13 mph 1021.5mb 42f 56f
8:24am 8 14 mph 1021.4mb 42f 56f
8:18am 8 11 mph 1021.6mb 42f 56f
8:12am 8 11 mph 1021.6mb 42f 56f
8:06am 7 8 mph 1021.7mb 42f 55f
8:00am 7 8 mph 1021.6mb 42f 55f
7:54am 6 7 mph 1021.7mb 42f 54f
7:48am 6 7 mph 1021.6mb 42f 54f
7:42am 7 9 mph 1021.6mb 42f 54f
7:36am 8 9 mph 1021.4mb 42f 54f
7:30am 9
mph
1021.3mb 42f 54f
7:24am 8 10 mph 1021.3mb 42f 54f
7:18am 10 11 mph 1021.2mb 42f 53f
7:12am 10 13 mph 1021.2mb 42f 53f
7:06am 10 13 mph 1021.1mb 42f 53f
7:00am 8 10 mph 1021mb 42f 53f
6:54am 7 10 mph 1021mb 42f 53f
6:48am 5 8 mph 1021mb 42f 53f
6:42am 2 6 mph 1020.9mb 42f 51f
6:36am 6 11 mph 1020.8mb 42f 51f
6:30am 11 13 mph 1020.6mb 42f 51f
6:24am 11 13 mph 1020.5mb 42f 53f
6:18am 7
mph
1020.5mb 42f 50f
6:12am 7 10 mph 1020.4mb 42f 51f
6:06am 6 7 mph 1020.4mb 42f 52f
6:00am 2 5 mph 1020.5mb 42f 52f
5:54am 3 6 mph 1020.5mb 42f 52f
5:48am 3 7 mph 1020.4mb 42f 53f
5:42am 7 10 mph 1020.4mb 43f 53f
5:36am 7 9 mph 1020.3mb 43f 55f
5:30am 8 11 mph 1020.3mb 43f 54f
5:24am 6 8 mph 1020.3mb 43f 53f
5:18am 6 7 mph 1020.3mb 43f 52f
5:12am 7 9 mph 1020.1mb 43f 53f
5:06am 7 8 mph 1020mb 43f 54f
5:00am 7 9 mph 1020mb 43f 55f
4:54am 8 10 mph 1019.9mb 43f 55f
4:48am 7 9 mph 1019.9mb 43f 55f
4:42am 6 8 mph 1019.9mb 43f 55f
4:36am 3 7 mph 1019.9mb 43f 55f
4:30am  -  3 mph 1020.1mb 43f 53f
4:24am 2 7 mph 1020mb 43f 53f
4:18am 6 13 mph 1020mb 43f 53f
4:12am 9 14 mph 1019.9mb 42f 54f
4:06am 14 16 mph 1019.8mb 42f 54f
4:00am 15 16 mph 1019.8mb 42f 55f
3:54am 15 17 mph 1019.9mb 42f 54f
3:48am 16 17 mph 1019.9mb 42f 54f
3:42am 14 15 mph 1020mb 42f 55f
3:36am 14 16 mph 1020mb 42f 55f
3:30am 14 16 mph 1020.1mb 42f 55f
3:24am 15 18 mph 1020.2mb 42f 56f
3:18am 16 21 mph 1020mb 42f 56f
3:12am 20 21 mph 1020mb 42f 56f
3:06am 20 23 mph 1019.9mb 42f 56f
3:00am 22 23 mph 1019.8mb 42f 56f
2:54am 22 24 mph 1019.9mb 42f 56f
2:48am 21 23 mph 1019.9mb 42f -
2:42am 21 23 mph 1019.9mb 42f -
2:36am 22 23 mph 1020mb 42f -
2:30am 22 23 mph 1020mb 42f 57f
2:24am 21 23 mph 1020.1mb 42f 57f
2:18am 21 23 mph 1020.2mb 42f 57f
2:12am 21 24 mph 1020.2mb 42f 57f
2:06am 21 24 mph 1020.2mb 42f 56f
2:00am 22 24 mph 1020.3mb 42f 57f
1:54am 23 24 mph 1020.3mb 42f 56f
1:48am 23 25 mph 1020.3mb 42f 57f
1:42am 24 26 mph 1020.2mb 42f 57f
1:36am 22 25 mph 1020.4mb 42f 57f
1:30am 23 25 mph 1020.5mb 42f 57f
1:24am 22 25 mph 1020.6mb 42f 56f
1:18am 23 24 mph 1020.6mb 42f 57f
1:12am 21 24 mph 1020.7mb 42f 57f
1:06am 21 22 mph 1020.8mb 42f 57f
1:00am 20 22 mph 1020.8mb 42f 57f
12:54am 20 22 mph 1021mb 42f 56f
12:48am 20 22 mph 1021mb 42f 56f
12:42am 20 22 mph 1021mb 42f 56f
12:36am 20 24 mph 1021mb 42f 56f
12:30am 20 21 mph 1021mb 42f 56f
12:24am 18 22 mph 1020.9mb 42f 56f
12:18am 20 22 mph 1020.9mb 42f 55f
12:12am 20 21 mph 1020.9mb 42f 56f
12:06am 20 22 mph 1021mb 42f 56f
12:00am 21 22 mph 1021mb 42f 56f
Fri 03/24 11:54pm 21 23 mph 1020.9mb 42f 56f
11:48pm 21 22 mph 1021mb 42f 56f
11:42pm 22
mph
1021mb 42f 56f
11:36pm 22 24 mph 1021mb 42f 56f
11:30pm 22 24 mph 1021mb 42f 56f
11:24pm 21 23 mph 1021mb 42f 56f
11:18pm 18 22 mph 1021mb 42f 56f
11:12pm 18 20 mph 1020.9mb 42f 56f
11:06pm 17 20 mph 1020.9mb 42f 56f
11:00pm 16 17 mph 1020.9mb 42f 55f
10:54pm 15 16 mph 1020.9mb 42f 54f
10:48pm 15 16 mph 1020.9mb 42f 53f
10:42pm 15
mph
1020.9mb 42f 53f
10:36pm 14
mph
1021mb 42f 52f
10:30pm 14
mph
1021mb 42f 53f
10:24pm 11 13 mph 1021.1mb 42f 53f
10:18pm 10 11 mph 1021.2mb 42f 53f
10:12pm 10 11 mph 1021.2mb 42f 53f
10:06pm 10 11 mph 1021.2mb 42f 52f
10:00pm 10 13 mph 1021.3mb 42f 52f
9:48pm 11
mph
1021.4mb 42f 51f
9:42pm 11 13 mph 1021.3mb 42f 51f
9:36pm 11 13 mph 1021.3mb 42f 51f
9:30pm 11
mph
1021.3mb 42f 52f
9:24pm 11 14 mph 1021.4mb 42f 52f
9:18pm 13 16 mph 1021.3mb 42f 54f
9:12pm 13 14 mph 1021.3mb 42f 54f
9:06pm 11 13 mph 1021.3mb 42f 54f
9:00pm 11 13 mph 1021.4mb 42f 54f
8:54pm 11
mph
1021.4mb 42f 54f
8:48pm 10
mph
1021.5mb 42f 52f
8:42pm 10
mph
1021.5mb 42f 51f
8:36pm 10 11 mph 1021.6mb 42f 52f
8:30pm 11 14 mph 1021.5mb 42f 52f
8:24pm 13 14 mph 1021.4mb 42f 53f
8:18pm 14
mph
1021.2mb 42f 54f
8:12pm 13
mph
1021.1mb 42f 55f
8:06pm 10 11 mph 1021.2mb 42f 54f
8:00pm 10
mph
1021.1mb 42f 55f
7:54pm 9 10 mph 1021.2mb 42f 54f
7:48pm 9 11 mph 1021.3mb 42f 51f
7:42pm 10 11 mph 1021.2mb 42f 52f
7:36pm 10 11 mph 1021.2mb 42f 52f
7:30pm 9 10 mph 1021.2mb 42f 51f
7:24pm 9
mph
1021.3mb 42f 51f
7:18pm 9
mph
1021.3mb 42f 50f
7:12pm 10 11 mph 1021.3mb 42f 51f
7:06pm 11 13 mph 1021.2mb 42f 52f
7:00pm 13 15 mph 1021.3mb 42f 53f
6:54pm 15 16 mph 1021.3mb 42f 53f
6:48pm 15 18 mph 1021.4mb 42f 53f
6:42pm 16 18 mph 1021.4mb 42f 53f
6:36pm 17 18 mph 1021.4mb 42f 53f
6:30pm 16 17 mph 1021.4mb 42f 53f
6:24pm 14 18 mph 1021.5mb 42f 52f
6:18pm 17 21 mph 1021.6mb 42f 53f
6:12pm 18 22 mph 1021.7mb 42f 53f
6:06pm 20 22 mph 1021.7mb 42f 53f
6:00pm 20 21 mph 1021.7mb 42f 53f
5:54pm 17 20 mph 1021.9mb 43f 53f
5:48pm 17 20 mph 1022mb 43f 53f
5:42pm 17 24 mph 1022.1mb 43f 53f
5:36pm 23 24 mph 1022.1mb 43f 55f
5:30pm 23 25 mph 1022.3mb 43f 54f
5:24pm 25 28 mph 1022.3mb 43f 54f
5:18pm 24 28 mph 1022.4mb 43f 55f
5:12pm 21 24 mph 1022.5mb 43f 54f
5:06pm 20 22 mph 1022.6mb 43f 52f
5:00pm 21 23 mph 1022.6mb 43f 53f
4:54pm 20 23 mph 1022.4mb 43f 53f
4:48pm 21 23 mph 1022.5mb 43f 54f
4:42pm 17 22 mph 1022.7mb 43f 53f
4:36pm 21 23 mph 1023mb 43f 54f
4:30pm 18 21 mph 1023.2mb 43f 53f
4:24pm 16 21 mph 1023.3mb 43f 54f
4:18pm 17 20 mph 1023.4mb 43f 53f
4:12pm 18 23 mph 1023.5mb 43f 53f
4:06pm 21 22 mph 1023.4mb 43f 54f
4:00pm 20 22 mph 1023.4mb 43f 54f
3:54pm 21 22 mph 1023.6mb 43f 54f
3:48pm 23 26 mph 1023.7mb 42f 54f
3:42pm 24 26 mph 1023.9mb 42f 54f
3:36pm 21 24 mph 1024mb 42f 53f
3:30pm 23 28 mph 1024.1mb 42f 54f
3:24pm 22 25 mph 1024.2mb 42f 54f
3:18pm 20 23 mph 1024.4mb 42f 54f
3:12pm 18 21 mph 1024.5mb 42f 53f
3:06pm 18 21 mph 1024.8mb 42f 53f
3:00pm 17 21 mph 1024.9mb 42f 52f
2:54pm 22 24 mph 1024.9mb 42f 52f
2:48pm 24 25 mph 1024.9mb 42f 53f
2:42pm 18 21 mph 1025mb 42f 51f
2:36pm 17 22 mph 1025.2mb 42f 51f
2:30pm 20 25 mph 1025.1mb 42f 51f
2:24pm 24 28 mph 1025.1mb 42f 52f
2:18pm 25 28 mph 1025.3mb 42f 51f
2:12pm 20 28 mph 1025.6mb 42f 51f
2:06pm 22 26 mph 1025.8mb 42f 51f
2:00pm 26 31 mph 1026.1mb 42f 51f
1:54pm 28 29 mph 1026.1mb 42f 51f
1:48pm 20 28 mph 1026.5mb 42f 50f
1:42pm 25 29 mph 1026.6mb 42f 50f
1:36pm 25 31 mph 1026.7mb 42f 50f
1:30pm 22 30 mph 1026.9mb 42f 49f
1:24pm 24 29 mph 1027mb 42f 50f
1:18pm 25 29 mph 1027.2mb 42f 50f
1:12pm 22 25 mph 1027.5mb 42f 49f
1:06pm 24 28 mph 1027.7mb 42f 49f
1:00pm 24 30 mph 1027.8mb 42f 49f
12:54pm 21 29 mph 1028mb 42f 49f
12:48pm 29 31 mph 1027.8mb 42f 50f
12:42pm 20 22 mph 1027.9mb 42f 49f
12:36pm 24 29 mph 1028.3mb 42f 49f
12:30pm 20 23 mph 1028.5mb 42f 48f
12:24pm 17 20 mph 1028.9mb 42f 47f
12:18pm 17 22 mph 1029.1mb 42f 47f
12:12pm 16 24 mph 1029.4mb 42f 46f
12:06pm 16 21 mph 1029.5mb 42f 46f
12:00pm 14 16 mph 1029.6mb 42f 45f
11:54am 15 18 mph 1029.7mb 42f 44f
11:48am 16 18 mph 1029.7mb 42f 44f
11:42am 13 15 mph 1030.2mb 42f 44f
11:36am 13 14 mph 1030.2mb 42f 42f
11:30am 11 14 mph 1030.5mb 42f 42f
11:24am 13 15 mph 1030.7mb 42f 42f
11:18am 14 16 mph 1030.8mb 42f 42f
11:12am 16 18 mph 1030.7mb 42f 43f
11:06am 18 21 mph 1030.9mb 41f 43f
11:00am 17 20 mph 1031.1mb 41f 43f
10:54am 16 20 mph 1031.2mb 41f 43f
10:48am 17 18 mph 1031.3mb 41f 43f
10:42am 16 18 mph 1031.4mb 41f 42f
10:36am 14 18 mph 1031.5mb 41f 42f
10:30am 15 22 mph 1031.4mb 41f 42f
10:24am 15 17 mph 1031.6mb 41f 42f
10:18am 14 15 mph 1031.7mb 41f 42f
10:12am 15 18 mph 1031.6mb 41f 42f
10:06am 17 18 mph 1031.7mb 41f 42f
10:00am 15 22 mph 1031.7mb 41f 42f
9:54am 21 23 mph 1031.6mb 41f 42f
9:48am 18 24 mph 1031.6mb 41f 41f
9:42am 22 24 mph 1031.5mb 41f 41f
9:36am 17 21 mph 1031.7mb 41f 40f
9:30am 17 22 mph 1031.6mb 41f 40f
9:24am 20 22 mph 1031.6mb 41f 39f
9:18am 21 23 mph 1031.6mb 41f 39f
9:12am 22 25 mph 1031.5mb 41f 39f
9:06am 21 24 mph 1031.7mb 41f 39f
9:00am 21 23 mph 1031.6mb 41f 39f
8:54am 18 22 mph 1031.7mb 41f 38f
8:48am 20 23 mph 1031.9mb 41f 38f
8:42am 20 23 mph 1031.9mb 41f 38f
8:36am 22 25 mph 1032.1mb 41f 38f
8:30am 23 26 mph 1032.1mb 41f 38f
8:24am 23 25 mph 1032.1mb 41f 38f
8:18am 23 28 mph 1031.9mb 41f 38f
8:12am 25 29 mph 1031.8mb 41f 38f
8:06am 25 26 mph 1031.7mb 41f 37f
8:00am 25 26 mph 1031.7mb 41f 37f
7:54am 22 25 mph 1031.7mb 41f 37f
7:48am 24 28 mph 1031.5mb 41f 37f
7:42am 23 29 mph 1031.5mb 41f 37f
7:36am 26 29 mph 1031.4mb 41f 37f
7:30am 24 26 mph 1031.4mb 41f 37f
7:24am 22 24 mph 1031.6mb 41f 37f
7:18am 21 23 mph 1031.8mb 41f 36f
7:12am 21 22 mph 1031.9mb 41f 36f
7:06am 18 20 mph 1032.1mb 41f 36f
7:00am 17 20 mph 1032.2mb 42f 36f
6:54am 17 20 mph 1032.4mb 42f 36f
6:48am 18 21 mph 1032.2mb 42f 36f
6:42am 17 21 mph 1032.1mb 42f 36f
6:36am 17 20 mph 1032.2mb 42f 36f
6:30am 16 20 mph 1032.2mb 42f 36f
6:24am 17 20 mph 1032.1mb 42f 36f
6:18am 16 18 mph 1032.2mb 42f 36f
6:12am 14 17 mph 1032.2mb 42f 35f
6:06am 16 18 mph 1032.2mb 42f 35f
6:00am 15 18 mph 1032.2mb 42f 35f
5:54am 17 20 mph 1032.3mb 42f 35f
5:48am 16 18 mph 1032.5mb 42f 35f
5:42am 16 20 mph 1032.6mb 42f 35f
5:36am 16 18 mph 1032.6mb 42f 35f
5:30am 15 16 mph 1032.6mb 42f 34f
5:24am 15 17 mph 1032.7mb 42f 34f
5:18am 14 16 mph 1032.9mb 42f 34f
5:12am 13 16 mph 1033mb 42f 34f
5:06am 13 17 mph 1032.8mb 42f 35f
5:00am 16 17 mph 1032.6mb 42f 35f
4:54am 16 17 mph 1032.5mb 42f 35f
4:48am 16 17 mph 1032.6mb 42f 35f
4:42am 15 20 mph 1032.5mb 42f 35f
4:36am 17 21 mph 1032.5mb 42f 35f
4:30am 20 22 mph 1032.4mb 42f 35f
4:24am 20 23 mph 1032.3mb 42f 35f
4:18am 18 22 mph 1032.3mb 42f 36f
4:12am 18 22 mph 1032.2mb 42f 35f
4:06am 21 24 mph 1032.2mb 42f 35f
4:00am 20 23 mph 1032.1mb 42f 35f
3:54am 21 23 mph 1032.2mb 42f 35f
3:48am 20 22 mph 1032.3mb 42f 35f
3:42am 20 23 mph 1032.4mb 41f 35f
3:36am 20 23 mph 1032.5mb 41f 35f
3:30am 20 24 mph 1032.6mb 41f 36f
3:24am 22 23 mph 1032.7mb 41f 35f
3:18am 22
mph
1032.9mb 42f 36f
3:12am 18 21 mph 1033.2mb 42f 36f
3:06am 16 18 mph 1033.3mb 42f 36f
3:00am 17 20 mph 1033.4mb 42f 35f
2:54am 14 17 mph 1033.6mb 42f 35f
2:48am 16 17 mph 1033.8mb 42f 35f
2:42am 13 16 mph 1033.8mb 42f 35f
2:36am 13 14 mph 1033.9mb 42f 35f
2:30am 10 13 mph 1034.1mb 42f 35f
2:24am 9 11 mph 1034.2mb 42f 35f
2:18am 10 13 mph 1034.5mb 42f 34f
2:12am 9 13 mph 1034.9mb 42f 34f
2:06am 10 13 mph 1034.7mb 42f 34f
2:00am 11 13 mph 1034.6mb 42f 34f
1:54am 11 14 mph 1034.4mb 42f 35f
1:48am 11 15 mph 1034.3mb 42f -
1:42am 14 15 mph 1034.2mb 42f -
1:36am 14 16 mph 1033.9mb 42f -
1:30am 15 17 mph 1033.8mb 42f 35f
1:24am 16 18 mph 1034mb 42f 35f
1:18am 16 20 mph 1033.9mb 42f 35f
1:12am 16 20 mph 1034mb 42f 36f
1:06am 15 17 mph 1033.9mb 42f 36f
1:00am 17 18 mph 1033.8mb 42f 36f
12:54am 16 20 mph 1033.7mb 42f 36f
12:48am 16 20 mph 1033.8mb 42f 37f
12:42am 15 18 mph 1033.8mb 42f 37f
12:36am 14 16 mph 1033.9mb 42f 38f
12:30am 14 15 mph 1034.2mb 42f 38f
12:24am 14 15 mph 1034.3mb 42f 38f
12:18am 15 16 mph 1034.3mb 42f 38f
12:12am 15 18 mph 1034.4mb 42f 38f
12:06am 15 17 mph 1034.6mb 42f 38f
12:00am 16 17 mph 1034.5mb 42f 38f
Thu 03/23 11:54pm 16 17 mph 1034.6mb 42f 38f
11:48pm 16 18 mph 1034.6mb 42f 38f
11:42pm 16 17 mph 1034.7mb 42f 38f
11:36pm 15 16 mph 1034.5mb 42f 38f
11:30pm 15 17 mph 1034.5mb 42f 37f
11:24pm 15 16 mph 1034.5mb 42f 37f
11:18pm 14 16 mph 1034.6mb 42f 37f
11:12pm 15 17 mph 1034.8mb 42f 37f
11:06pm 16 17 mph 1034.9mb 42f 37f
11:00pm 15 16 mph 1035.1mb 42f 38f
10:54pm 13 14 mph 1035.3mb 42f 38f
10:48pm 13 14 mph 1035.3mb 42f 38f
10:42pm 13 14 mph 1035.2mb 42f 39f
10:36pm 14 15 mph 1035.3mb 42f 39f
10:30pm 13 14 mph 1035.4mb 42f 39f
10:24pm 11 13 mph 1035.4mb 42f 39f
10:18pm 9 11 mph 1035.2mb 42f 40f
10:12pm 11 13 mph 1034.9mb 42f 40f
10:06pm 13 14 mph 1034.8mb 42f 39f
10:00pm 13 14 mph 1034.7mb 42f 39f
9:54pm 14 15 mph 1034.5mb 42f 40f
9:48pm 13 15 mph 1034.5mb 42f 40f
9:42pm 13 15 mph 1034.6mb 42f 40f
9:36pm 14 16 mph 1034.6mb 42f 40f
9:30pm 15 17 mph 1034.6mb 42f 40f
9:24pm 17 18 mph 1034.5mb 42f 39f
9:18pm 16 18 mph 1034.4mb 42f 40f
9:12pm 16 18 mph 1034.3mb 42f 40f
9:06pm 16 18 mph 1034.3mb 42f 40f
9:00pm 17
mph
1034.3mb 42f 39f
8:54pm 16 17 mph 1034.3mb 42f 39f
8:48pm 16 18 mph 1034.2mb 42f 39f
8:42pm 16 18 mph 1034.1mb 42f 39f
8:36pm 16 17 mph 1034mb 42f 39f
8:30pm 16 17 mph 1033.9mb 42f 39f
8:24pm 16 17 mph 1033.8mb 42f 39f
8:18pm 16 17 mph 1033.9mb 42f 39f
8:12pm 15 16 mph 1033.9mb 42f 39f
8:06pm 13 14 mph 1034mb 42f 39f
8:00pm 13 14 mph 1034mb 42f 39f
7:54pm 13 14 mph 1034mb 42f 39f
7:48pm 14
mph
1033.9mb 42f 39f
7:42pm 13 14 mph 1034mb 42f 39f
7:36pm 13 14 mph 1034.1mb 43f 39f
7:30pm 11 13 mph 1034.1mb 43f 39f
7:24pm 13 15 mph 1034.1mb 43f 39f
7:18pm 11 13 mph 1034mb 43f 39f
7:12pm 9 10 mph 1034.1mb 43f 39f
7:06pm 8 9 mph 1033.9mb 43f 39f
7:00pm 9
mph
1033.9mb 43f 39f
6:54pm 8 9 mph 1033.9mb 43f 40f
6:48pm 7 8 mph 1033.9mb 43f 40f
6:42pm 7
mph
1033.9mb 43f 40f
6:36pm 6 7 mph 1033.9mb 43f 40f
6:30pm 7 8 mph 1034mb 43f 41f
6:24pm 5 7 mph 1034mb 43f 41f
6:18pm 6 7 mph 1033.9mb 43f 40f
6:12pm 6 7 mph 1033.9mb 43f 39f
6:06pm 6 7 mph 1033.9mb 43f 39f
6:00pm 6 7 mph 1033.9mb 42f 39f
5:54pm 6 7 mph 1033.9mb 42f 39f
5:48pm 7 8 mph 1034mb 42f 38f
5:42pm 7 8 mph 1034mb 42f 39f
5:36pm 5 6 mph 1034.1mb 42f 39f
5:30pm 6 8 mph 1034mb 42f 38f
5:24pm 8
mph
1034.1mb 42f 39f
5:18pm 6 7 mph 1034mb 42f 38f
5:12pm 7 8 mph 1034.1mb 43f 39f
5:06pm 5 6 mph 1034.2mb 43f 38f
5:00pm 5
mph
1034.3mb 43f 38f
4:54pm 3 6 mph 1034.3mb 43f 38f
4:48pm 3 5 mph 1034.4mb 43f 38f
4:42pm 5
mph
1034.4mb 43f 38f
4:36pm 2 3 mph 1034.6mb 43f 38f
4:30pm 3 5 mph 1034.6mb 43f 38f
4:24pm 2 3 mph 1034.6mb 43f 37f
4:18pm 2 3 mph 1034.7mb 43f 37f
4:12pm 5 6 mph 1034.8mb 43f 37f
4:06pm 5 6 mph 1034.8mb 43f 37f
4:00pm 3 5 mph 1034.8mb 43f 37f
3:54pm 2 5 mph 1034.9mb 43f 37f
3:48pm 5 6 mph 1035mb 43f 37f
3:42pm 5 6 mph 1035.1mb 43f 36f
3:36pm 6
mph
1035.2mb 43f 36f
3:30pm 6 7 mph 1035.2mb 43f 36f
3:24pm 7 8 mph 1035.3mb 43f 36f
3:18pm 6 7 mph 1035.4mb 43f 36f
3:12pm 6
mph
1035.4mb 43f 36f
3:06pm 5 6 mph 1035.5mb 43f 36f
3:00pm 3 5 mph 1035.5mb 43f 37f
2:54pm  -  2 mph 1035.6mb 43f 37f
2:48pm 1 3 mph 1035.6mb 43f 36f
2:42pm 2 5 mph 1035.7mb 43f 36f
2:36pm 3 5 mph 1035.7mb 43f 35f
2:30pm 5 6 mph 1035.8mb 42f 35f
2:24pm 5 6 mph 1035.8mb 42f 35f
2:18pm 5
mph
1035.8mb 42f 35f
2:12pm 3 5 mph 1036mb 42f 35f
2:06pm 1 2 mph 1036.1mb 42f 35f
2:00pm  -  2 mph 1036.2mb 42f 35f
1:54pm 1 2 mph 1036.2mb 42f 35f
1:48pm 1 3 mph 1036.3mb 42f 34f
1:42pm 3 6 mph 1036.3mb 42f 34f
1:36pm 6 7 mph 1036.4mb 42f 33f
1:30pm 7 8 mph 1036.5mb 42f 33f
1:24pm 7 8 mph 1036.7mb 42f 33f
1:18pm 8 9 mph 1036.7mb 42f 33f
1:12pm 7 9 mph 1036.7mb 42f 33f
1:06pm 8 9 mph 1036.8mb 42f 32f
1:00pm 8 9 mph 1036.9mb 41f 32f
12:54pm 8 10 mph 1036.9mb 41f 32f
12:48pm 7 9 mph 1037.1mb 41f 32f
12:42pm 7 8 mph 1037.1mb 41f 32f
12:36pm 6 9 mph 1037.1mb 41f 32f
12:30pm 7 9 mph 1037.2mb 41f 31f
12:24pm 7 9 mph 1037.3mb 41f 31f
12:18pm 7 8 mph 1037.4mb 41f 31f
12:12pm 7 11 mph 1037.5mb 41f 31f
12:06pm 7 8 mph 1037.5mb 41f 31f
12:00pm 7 9 mph 1037.6mb 41f 30f
11:54am 8 10 mph 1037.6mb 41f 31f
11:48am 6 9 mph 1037.7mb 41f 30f
11:42am 7 9 mph 1037.8mb 41f 30f
11:36am 7 9 mph 1037.8mb 41f 30f
11:30am 6 7 mph 1037.8mb 41f 30f
11:24am 3 7 mph 1037.9mb 41f 30f
11:18am 7 9 mph 1037.9mb 41f 30f
11:12am 7 8 mph 1037.9mb 41f 30f
11:06am 5 7 mph 1038mb 41f 30f
11:00am 6
mph
1038.1mb 41f 30f
10:54am 6 7 mph 1038.1mb 41f 30f
10:48am 2 6 mph 1038mb 41f 30f
10:42am 6 8 mph 1037.9mb 41f 29f
10:36am 6 8 mph 1037.8mb 41f 29f
10:30am 7 8 mph 1037.8mb 41f 29f
10:24am 6 9 mph 1037.8mb 41f 29f
10:18am 8 11 mph 1037.8mb 41f 29f
10:12am 8 10 mph 1037.7mb 41f 29f
10:06am 7 10 mph 1037.7mb 41f 29f
10:00am 8 11 mph 1037.7mb 41f 29f
9:54am 9 13 mph 1037.6mb 41f 29f
9:48am 11 14 mph 1037.5mb 41f 29f
9:42am 10 15 mph 1037.4mb 41f 28f
9:36am 13 15 mph 1037.3mb 41f 28f
9:30am 11 14 mph 1037.2mb 41f 28f
9:24am 14 17 mph 1037.2mb 41f 28f
9:18am 15 21 mph 1037.1mb 41f 28f
9:12am 16 18 mph 1037mb 41f 28f
9:06am 15 17 mph 1037.1mb 41f 28f
9:00am 15 21 mph 1037mb 41f 28f
8:54am 15 23 mph 1037mb 41f 28f
8:48am 17 21 mph 1036.9mb 41f 28f
8:42am 17 20 mph 1036.9mb 41f 28f
8:36am 16 18 mph 1036.9mb 41f 28f
8:30am 17 20 mph 1036.8mb 41f 27f
8:24am 16 18 mph 1036.8mb 41f 27f
8:18am 16 18 mph 1036.8mb 41f 27f
8:12am 15 17 mph 1036.8mb 41f 27f
8:06am 13 16 mph 1036.9mb 41f 27f
8:00am 15 17 mph 1036.8mb 41f 27f
7:54am 14 18 mph 1036.8mb 41f 27f
7:48am 16 17 mph 1036.7mb 41f 27f
7:42am 15 17 mph 1036.7mb 41f 26f
7:36am 15 18 mph 1036.6mb 41f 27f
7:30am 14 17 mph 1036.5mb 41f 26f
7:24am 14 17 mph 1036.4mb 41f 26f
7:18am 14 18 mph 1036.4mb 41f 26f
7:12am 13 16 mph 1036.3mb 41f 26f
7:06am 14 17 mph 1036.3mb 41f 26f
7:00am 13 17 mph 1036.2mb 41f 27f
6:54am 14 16 mph 1036.1mb 41f 26f
6:48am 11 15 mph 1036mb 41f 26f
6:42am 13 16 mph 1035.9mb 41f 26f
6:36am 14 15 mph 1035.8mb 41f 26f
6:30am 14 16 mph 1035.7mb 41f 26f
6:24am 11 18 mph 1035.7mb 41f 26f
6:18am 13 18 mph 1035.5mb 41f 27f
6:12am 14 17 mph 1035.5mb 41f 26f
6:06am 15 18 mph 1035.5mb 41f 26f
6:00am 14 17 mph 1035.4mb 41f 27f
5:54am 14 20 mph 1035.2mb 41f 27f
5:48am 14 18 mph 1035.1mb 41f 27f
5:42am 14 20 mph 1035mb 41f 27f
5:36am 15 18 mph 1034.9mb 41f 27f
5:30am 16 20 mph 1034.9mb 41f 27f
5:24am 16 18 mph 1034.7mb 41f 26f
5:18am 15 20 mph 1034.6mb 41f 27f
5:12am 15 20 mph 1034.5mb 41f 27f
5:06am 16 20 mph 1034.3mb 41f 27f
5:00am 14 18 mph 1034.3mb 41f 27f
4:54am 16 17 mph 1034.2mb 41f 27f
4:48am 16 21 mph 1034.1mb 41f 27f
4:42am 14 18 mph 1034.1mb 41f 27f
4:36am 15 18 mph 1033.9mb 41f 27f
4:30am 16 20 mph 1033.8mb 41f 27f
4:24am 16 18 mph 1033.8mb 41f 27f
4:18am 17 21 mph 1033.7mb 41f 27f
4:12am 17 22 mph 1033.6mb 41f 27f
4:06am 17 22 mph 1033.6mb 41f 28f
4:00am 18 22 mph 1033.6mb 41f 28f
3:54am 20 22 mph 1033.5mb 41f 28f
3:48am 17 21 mph 1033.4mb 41f 28f
3:42am 17 20 mph 1033.4mb 41f 28f
3:36am 15 20 mph 1033.4mb 41f 28f
3:30am 15 20 mph 1033.3mb 41f 28f
3:24am 16 23 mph 1033.1mb 41f 28f
3:18am 18 23 mph 1033mb 41f 28f
3:12am 17 21 mph 1033mb 41f 28f
3:06am 17 21 mph 1033mb 41f 28f
3:00am 16 22 mph 1033mb 41f 28f
2:54am 17 21 mph 1032.9mb 41f 28f
2:48am 16 18 mph 1032.8mb 41f -
2:42am 14 18 mph 1032.8mb 41f -
2:36am 16 20 mph 1032.8mb 41f -
2:30am 14 16 mph 1032.8mb 41f 29f
2:24am 15 18 mph 1032.7mb 41f 28f
2:18am 14 18 mph 1032.6mb 41f 29f
2:12am 15 18 mph 1032.5mb 41f 29f
2:06am 15 17 mph 1032.6mb 41f 29f
2:00am 15 16 mph 1032.5mb 41f 29f
1:54am 13 16 mph 1032.5mb 41f 29f
1:48am 13 16 mph 1032.6mb 41f -
1:42am 13 15 mph 1032.6mb 41f -
1:36am 11 15 mph 1032.6mb 41f -
1:30am 14 17 mph 1032.6mb 41f 29f
1:24am 14 17 mph 1032.4mb 41f 29f
1:18am 14 18 mph 1032.3mb 41f 30f
1:12am 14 17 mph 1032.3mb 41f 29f
1:06am 14 16 mph 1032.3mb 42f 30f
1:00am 13 15 mph 1032.4mb 42f 30f
12:54am 13 15 mph 1032.4mb 42f 30f
12:48am 14 15 mph 1032.3mb 42f 30f
12:42am 13 15 mph 1032.3mb 42f 30f
12:36am 13 14 mph 1032.3mb 42f 30f
12:30am 13 15 mph 1032.4mb 42f 30f
12:24am 13 15 mph 1032.2mb 42f 31f
12:18am 14 15 mph 1032.1mb 42f 30f
12:12am 14 16 mph 1031.8mb 42f 31f
12:06am 14 17 mph 1031.8mb 42f 31f
12:00am 15 17 mph 1031.7mb 42f 31f
Wed 03/22 11:54pm 16 18 mph 1031.7mb 42f 31f
11:48pm 14 17 mph 1031.7mb 42f 31f
11:42pm 14 16 mph 1031.7mb 42f 31f
11:36pm 15 18 mph 1031.6mb 42f 31f
11:30pm 16 18 mph 1031.6mb 42f 31f
11:24pm 16 18 mph 1031.6mb 42f 32f
11:18pm 15 17 mph 1031.4mb 42f 32f
11:12pm 15 16 mph 1031.4mb 42f 32f
11:06pm 14 15 mph 1031.4mb 42f 32f
11:00pm 15 17 mph 1031.4mb 42f 32f
10:54pm 15 17 mph 1031.3mb 42f 32f
10:48pm 14 20 mph 1031.2mb 42f 33f
10:42pm 18 23 mph 1030.9mb 42f 33f
10:36pm 21 24 mph 1030.7mb 42f 33f
10:30pm 22 25 mph 1030.6mb 42f 34f
10:24pm 20 22 mph 1030.6mb 42f 33f
10:18pm 18 21 mph 1030.6mb 42f 34f
10:12pm 17 21 mph 1030.6mb 42f 34f
10:06pm 15 21 mph 1030.6mb 42f 34f
10:00pm 17 21 mph 1030.4mb 42f 34f
9:54pm 17 21 mph 1030.3mb 42f 34f
9:48pm 16 20 mph 1030.2mb 42f 34f
9:42pm 16 21 mph 1030.1mb 42f 34f
9:36pm 18 20 mph 1029.9mb 42f 35f
9:30pm 17 20 mph 1029.8mb 42f 35f
9:24pm 18 22 mph 1029.7mb 42f 35f
9:18pm 17 20 mph 1029.6mb 42f 35f
9:12pm 16 20 mph 1029.5mb 42f 35f
9:06pm 15 16 mph 1029.3mb 42f 35f
9:00pm 15 18 mph 1029.3mb 42f 35f
8:54pm 15 21 mph 1029.2mb 42f 35f
8:48pm 20 22 mph 1029.1mb 42f 35f
8:42pm 17 21 mph 1028.9mb 42f 35f
8:36pm 17 22 mph 1028.9mb 42f 36f
8:30pm 21 24 mph 1028.8mb 42f 36f
8:24pm 22 25 mph 1028.7mb 42f 36f
8:18pm 22 28 mph 1028.6mb 42f 36f
8:12pm 23 28 mph 1028.4mb 42f 36f
8:06pm 23 28 mph 1028.3mb 42f 37f
8:00pm 23 28 mph 1028.1mb 42f 37f
7:54pm 24 29 mph 1028.1mb 42f 37f
7:48pm 23 30 mph 1027.9mb 42f 37f
7:42pm 25 30 mph 1027.6mb 42f 37f
7:36pm 24 29 mph 1027.6mb 42f 37f
7:30pm 28 31 mph 1027.5mb 42f 37f
7:24pm 26 30 mph 1027.4mb 42f 37f
7:18pm 24 28 mph 1027.4mb 42f 37f
7:12pm 25 30 mph 1027.1mb 42f 38f
7:06pm 24 29 mph 1027.1mb 42f 38f
7:00pm 23 28 mph 1027mb 42f 38f
6:54pm 25 29 mph 1026.8mb 42f 38f
6:48pm 24 28 mph 1026.7mb 42f 38f
6:42pm 25 29 mph 1026.5mb 42f 38f
6:36pm 26 33 mph 1026.3mb 42f 38f
6:30pm 29 34 mph 1026.1mb 42f 38f
6:24pm 29 33 mph 1026mb 42f 38f
6:18pm 29 32 mph 1025.8mb 42f 38f
6:12pm 26 33 mph 1025.8mb 42f 38f
6:06pm 29 31 mph 1025.6mb 42f 38f
6:00pm 25 30 mph 1025.7mb 42f 38f
5:54pm 29 36 mph 1025.6mb 42f 38f
5:48pm 29 34 mph 1025.4mb 42f 38f
5:42pm 25 33 mph 1025.4mb 42f 38f
5:36pm 30 36 mph 1025mb 42f 38f
5:30pm 30 37 mph 1025mb 42f 38f
5:24pm 30 37 mph 1024.8mb 42f 38f
5:18pm 29 34 mph 1024.9mb 42f 38f
5:12pm 31 34 mph 1024.9mb 42f 38f
5:06pm 30 33 mph 1024.8mb 42f 38f
5:00pm 26 33 mph 1024.8mb 42f 38f
4:54pm 34 38 mph 1024.6mb 42f 38f
4:48pm 26 33 mph 1024.6mb 42f 38f
4:42pm 30 37 mph 1024.5mb 42f 38f
4:36pm 31 37 mph 1024.3mb 42f 38f
4:30pm 32 36 mph 1024.2mb 42f 38f
4:24pm 29 34 mph 1024.2mb 42f 38f
4:18pm 24 30 mph 1024.2mb 42f 38f
4:12pm 29 36 mph 1024mb 42f 38f
4:06pm 31 37 mph 1023.8mb 42f 38f
4:00pm 29 38 mph 1023.8mb 42f 38f
3:54pm 33 39 mph 1023.6mb 42f 38f
3:48pm 32 37 mph 1023.5mb 42f 38f
3:42pm 34 39 mph 1023.3mb 42f 38f
3:36pm 34 38 mph 1023.2mb 42f 38f
3:30pm 28 33 mph 1023.3mb 42f 38f
3:24pm 31 36 mph 1023.2mb 42f 38f
3:18pm 33 40 mph 1023.2mb 42f 38f
3:12pm 33 38 mph 1023mb 42f 38f
3:06pm 32 36 mph 1023mb 42f 38f
3:00pm 30 34 mph 1023.2mb 42f 38f
2:54pm 30 34 mph 1023.1mb 42f 38f
2:48pm 32 38 mph 1022.9mb 42f 38f
2:42pm 29 32 mph 1023mb 42f 38f
2:36pm 30 36 mph 1022.9mb 42f 38f
2:30pm 31 34 mph 1022.7mb 42f 38f
2:24pm 24 31 mph 1022.8mb 42f 38f
2:18pm 26 34 mph 1022.7mb 42f 38f
2:12pm 29 33 mph 1022.7mb 42f 38f
2:06pm 25 31 mph 1023mb 42f 38f
2:00pm 25 29 mph 1022.9mb 42f 38f
1:54pm 26 31 mph 1023.1mb 42f 38f
1:48pm 24 31 mph 1023mb 42f 38f
1:42pm 28 32 mph 1022.9mb 42f 38f
1:36pm 29 34 mph 1022.8mb 42f 38f
1:30pm 32 37 mph 1022.6mb 42f 38f
1:24pm 28 36 mph 1022.6mb 42f 38f
1:18pm 31 36 mph 1022.3mb 42f 38f
1:12pm 31 39 mph 1022.2mb 42f 38f
1:06pm 34 39 mph 1022.1mb 42f 38f
1:00pm 31 37 mph 1022.2mb 42f 38f
12:54pm 33 39 mph 1022.1mb 42f 38f
12:48pm 34 38 mph 1022mb 42f 38f
12:42pm 34 40 mph 1022mb 42f 38f
12:36pm 36 40 mph 1021.9mb 42f 38f
12:30pm 30 36 mph 1022.1mb 42f 38f
12:24pm 29 33 mph 1022mb 42f 38f
12:18pm 30 39 mph 1021.9mb 42f 38f
12:12pm 30 33 mph 1021.8mb 42f 38f
12:06pm 29 36 mph 1021.9mb 42f 38f
12:00pm 29 37 mph 1021.6mb 42f 38f
11:54am 32 37 mph 1021.5mb 42f 38f
11:48am 32 36 mph 1021.3mb 42f 38f
11:42am 31 34 mph 1021.2mb 42f 38f
11:36am 30 34 mph 1021.1mb 42f 38f
11:30am 31 34 mph 1021mb 42f 38f
11:24am 30 37 mph 1021mb 42f 38f
11:18am 33 39 mph 1020.9mb 42f 38f
11:12am 34 41 mph 1020.8mb 42f 38f
11:06am 37 41 mph 1020.6mb 42f 38f
11:00am 37 41 mph 1020.4mb 42f 38f
10:54am 36 40 mph 1020.3mb 42f 38f
10:48am 36 41 mph 1020.1mb 42f 38f
10:42am 33 39 mph 1020.1mb 42f 39f
10:36am 33 39 mph 1020.1mb 42f 39f
10:30am 30 38 mph 1020mb 42f 39f
10:24am 32 39 mph 1019.9mb 42f 38f
10:18am 33 38 mph 1019.7mb 42f 39f
10:12am 36 39 mph 1019.5mb 42f 39f
10:06am 34 38 mph 1019.3mb 42f 39f
10:00am 32 38 mph 1019.2mb 42f 40f
9:54am 29 37 mph 1019.2mb 42f 40f
9:48am 28 37 mph 1018.9mb 42f 41f
9:42am 29 37 mph 1018.7mb 42f 41f
9:36am 32 37 mph 1018.6mb 42f 41f
9:30am 32 39 mph 1018.5mb 42f 41f
9:24am 29 36 mph 1018.3mb 42f 41f
9:18am 32 39 mph 1018.3mb 42f 41f
9:12am 30 33 mph 1018.1mb 42f 41f
9:06am 29 32 mph 1018mb 42f 41f
9:00am 29 34 mph 1018.1mb 42f 41f
8:54am 29 34 mph 1017.9mb 42f 41f
8:48am 30 32 mph 1017.8mb 42f 41f
8:42am 25 30 mph 1017.8mb 42f 42f
8:36am 25 29 mph 1017.7mb 42f 42f
8:30am 26 29 mph 1017.5mb 42f 42f
8:24am 29 31 mph 1017.4mb 42f 42f
8:18am 24 29 mph 1017.3mb 42f 42f
8:12am 28 30 mph 1017.1mb 42f 42f
8:06am 26 33 mph 1017.1mb 42f 43f
8:00am 28 33 mph 1016.8mb 42f 43f
7:54am 30 34 mph 1016.6mb 42f 43f
7:48am 31 36 mph 1016.4mb 42f 43f
7:42am 29 36 mph 1016.3mb 42f 44f
7:36am 29 31 mph 1016.2mb 42f 44f
7:30am 28 36 mph 1016mb 42f 44f
7:24am 30 37 mph 1015.6mb 42f 44f
7:18am 30 37 mph 1015.5mb 42f 44f
7:12am 28 31 mph 1015.3mb 42f 44f
7:06am 25 31 mph 1015.4mb 42f 44f
7:00am 24 29 mph 1015.3mb 42f 45f
6:54am 25 31 mph 1015.2mb 42f 45f
6:48am 25 34 mph 1015mb 42f 45f
6:42am 30 34 mph 1014.8mb 42f 46f
6:36am 25 30 mph 1014.8mb 42f 45f
6:30am 26 30 mph 1014.6mb 42f 46f
6:24am 25 29 mph 1014.4mb 42f 46f
6:18am 25 29 mph 1014.2mb 42f 46f
6:12am 24 28 mph 1014mb 42f 47f
6:06am 23 25 mph 1013.8mb 42f 46f
6:00am 24 28 mph 1013.5mb 42f 47f
5:54am 18 22 mph 1013.5mb 42f 47f
5:48am 21 22 mph 1013.4mb 42f 47f
5:42am 16 18 mph 1013.4mb 42f 47f
5:36am 15 17 mph 1013.4mb 42f 47f
5:30am 15 16 mph 1013.3mb 42f 47f
5:24am 16 20 mph 1013.2mb 42f 48f
5:18am 18 21 mph 1013.1mb 42f 49f
5:12am 17 20 mph 1013.1mb 42f 49f
5:06am 14 16 mph 1013.1mb 42f 48f
5:00am 14
mph
1013mb 42f 47f
4:54am 11 14 mph 1012.9mb 42f 46f
4:48am 11 13 mph 1012.8mb 42f 46f
4:42am 9
mph
1012.8mb 42f 47f
4:36am 8 9 mph 1012.8mb 42f 47f
4:30am 9 10 mph 1012.6mb 42f 49f
4:24am 9
mph
1012.4mb 42f 48f
4:18am 8 9 mph 1012.3mb 42f 48f
4:12am 7 8 mph 1012.3mb 42f 47f
4:06am 7 8 mph 1012.2mb 42f 49f
4:00am 7 8 mph 1012.2mb 42f 49f
3:54am 8 9 mph 1012.1mb 42f 49f
3:48am 9 10 mph 1012mb 42f 49f
3:42am 10
mph
1011.9mb 42f 49f
3:36am 9
mph
1011.9mb 42f 48f
3:30am 9 10 mph 1012mb 42f 47f
3:24am 9 10 mph 1012.1mb 42f 47f
3:18am 9 10 mph 1012.1mb 42f 47f
3:12am 10 11 mph 1012.1mb 42f 47f
3:06am 10 13 mph 1012mb 42f 50f
3:00am 10 13 mph 1012.1mb 42f 50f
2:54am 9 14 mph 1012.2mb 42f 51f
2:48am 10 11 mph 1012.2mb 42f -
2:42am 10 11 mph 1012.2mb 42f -
2:36am 10 11 mph 1012.1mb 42f -
2:30am 10
mph
1012.1mb 42f 49f
2:24am 9
mph
1012.2mb 42f 50f
2:18am 9
mph
1012.2mb 42f 49f
2:12am 9 10 mph 1012.3mb 42f 49f
2:06am 10
mph
1012.2mb 42f 50f
2:00am 8 9 mph 1012.3mb 42f 50f
1:54am 8 10 mph 1012.2mb 42f 50f
1:48am 10 13 mph - - -
1:42am 14
mph
- - -
1:36am 13 14 mph - - -
1:30am 11
mph
1012.2mb 42f 47f
1:24am 8 10 mph 1012.1mb 42f 48f
1:18am 10 11 mph 1012mb 42f 49f
1:12am 11 13 mph 1011.9mb 42f 50f
1:06am 13
mph
1012mb 42f 49f
1:00am 10 11 mph 1012mb 42f 48f
12:54am 10 14 mph 1011.9mb 42f 49f
12:48am 13 14 mph 1011.9mb 42f 49f
12:42am 13 14 mph 1011.9mb 42f 49f
12:36am 13 14 mph 1011.9mb 42f 48f
12:30am 14
mph
1012mb 42f 48f
12:24am 14 15 mph 1012mb 42f 48f
12:18am 14
mph
1012mb 42f 47f
12:12am 13
mph
1012.1mb 42f 48f
12:06am 13 14 mph 1012mb 42f 48f